createdAt,value
2018-08-19T00:00:42.425Z,28.07
2018-08-19T00:03:10.916Z,39.87
2018-08-19T00:05:39.435Z,32.70
2018-08-19T00:08:08.069Z,36.73
2018-08-19T00:10:47.533Z,32.20
2018-08-19T00:13:16.075Z,33.40
2018-08-19T00:15:44.597Z,31.80
2018-08-19T00:18:13.154Z,35.17
2018-08-19T00:20:41.746Z,30.60
2018-08-19T00:23:10.581Z,34.63
2018-08-19T00:25:41.501Z,31.80
2018-08-19T00:28:11.492Z,37.73
2018-08-19T00:30:40.002Z,32.17
2018-08-19T00:33:08.711Z,32.57
2018-08-19T00:35:37.328Z,35.23
2018-08-19T00:38:07.470Z,34.13
2018-08-19T00:40:35.977Z,34.30
2018-08-19T00:43:04.517Z,38.23
2018-08-19T00:45:33.084Z,35.07
2018-08-19T00:48:01.698Z,36.10
2018-08-19T00:50:30.309Z,30.10
2018-08-19T00:52:58.818Z,34.53
2018-08-19T00:55:30.828Z,32.43
2018-08-19T00:58:00.251Z,38.80
2018-08-19T01:00:29.541Z,37.90
2018-08-19T01:02:58.089Z,33.53
2018-08-19T01:05:26.618Z,36.83
2018-08-19T01:07:55.212Z,32.37
2018-08-19T01:10:23.760Z,34.03
2018-08-19T01:12:52.360Z,37.90
2018-08-19T01:15:20.842Z,37.40
2018-08-19T01:17:49.363Z,44.27
2018-08-19T01:20:21.452Z,35.47
2018-08-19T01:22:50.073Z,39.17
2018-08-19T01:25:18.694Z,35.83
2018-08-19T01:27:47.226Z,34.33
2018-08-19T01:30:21.777Z,38.60
2018-08-19T01:32:50.263Z,38.30
2018-08-19T01:35:21.316Z,32.60
2018-08-19T01:37:49.803Z,36.70
2018-08-19T01:40:18.681Z,39.40
2018-08-19T01:42:47.791Z,38.07
2018-08-19T01:45:16.308Z,40.17
2018-08-19T01:47:45.119Z,38.07
2018-08-19T01:50:15.400Z,42.97
2018-08-19T01:52:44.717Z,42.23
2018-08-19T01:55:13.193Z,41.43
2018-08-19T01:57:46.854Z,38.77
2018-08-19T02:00:16.149Z,50.27
2018-08-19T02:02:58.705Z,46.83
2018-08-19T02:05:27.376Z,40.10
2018-08-19T02:07:58.457Z,42.00
2018-08-19T02:10:27.625Z,44.30
2018-08-19T02:12:57.148Z,42.80
2018-08-19T02:15:27.280Z,43.10
2018-08-19T02:17:57.548Z,40.40
2018-08-19T02:20:30.206Z,45.67
2018-08-19T02:22:59.536Z,50.10
2018-08-19T02:25:32.917Z,43.50
2018-08-19T02:28:01.901Z,47.50
2018-08-19T02:30:30.420Z,51.20
2018-08-19T02:32:59.002Z,52.63
2018-08-19T02:35:27.469Z,54.60
2018-08-19T02:37:55.918Z,45.27
2018-08-19T02:40:29.009Z,56.70
2018-08-19T02:42:57.498Z,50.03
2018-08-19T02:45:26.078Z,53.37
2018-08-19T02:47:54.608Z,51.40
2018-08-19T02:50:23.114Z,54.77
2018-08-19T02:52:51.645Z,54.23
2018-08-19T02:55:20.281Z,47.97
2018-08-19T02:57:48.771Z,46.70
2018-08-19T03:00:18.809Z,55.53
2018-08-19T03:02:47.319Z,48.23
2018-08-19T03:05:16.163Z,50.57
2018-08-19T03:07:44.650Z,47.43
2018-08-19T03:10:14.463Z,51.27
2018-08-19T03:12:43.399Z,45.20
2018-08-19T03:15:13.127Z,51.87
2018-08-19T03:17:42.140Z,50.23
2018-08-19T03:20:13.405Z,48.87
2018-08-19T03:22:42.046Z,51.00
2018-08-19T03:25:10.815Z,54.17
2018-08-19T03:27:39.380Z,52.13
2018-08-19T03:30:14.003Z,52.33
2018-08-19T03:32:50.299Z,51.40
2018-08-19T03:35:20.634Z,63.47
2018-08-19T03:37:51.946Z,60.90
2018-08-19T03:40:20.649Z,48.90
2018-08-19T03:42:49.138Z,55.10
2018-08-19T03:45:19.697Z,51.83
2018-08-19T03:47:49.264Z,50.07
2018-08-19T03:50:22.797Z,59.17
2018-08-19T03:52:52.059Z,50.87
2018-08-19T03:55:27.840Z,46.70
2018-08-19T03:57:59.800Z,48.40
2018-08-19T04:00:30.321Z,50.40
2018-08-19T04:02:58.858Z,48.90
2018-08-19T04:05:40.250Z,55.60
2018-08-19T04:08:10.158Z,52.67
2018-08-19T04:10:39.982Z,55.20
2018-08-19T04:13:44.010Z,52.10
2018-08-19T04:16:12.849Z,55.07
2018-08-19T04:18:43.445Z,51.00
2018-08-19T04:21:13.037Z,49.33
2018-08-19T04:23:45.412Z,51.23
2018-08-19T04:26:13.901Z,52.03
2018-08-19T04:28:43.617Z,47.80
2018-08-19T04:31:24.598Z,63.57
2018-08-19T04:33:53.780Z,55.67
2018-08-19T04:36:23.318Z,53.90
2018-08-19T04:38:51.821Z,49.67
2018-08-19T04:41:20.367Z,51.83
2018-08-19T04:43:49.397Z,56.07
2018-08-19T04:46:17.964Z,74.37
2018-08-19T04:48:47.689Z,51.00
2018-08-19T04:51:16.182Z,46.87
2018-08-19T04:53:44.680Z,53.80
2018-08-19T04:56:13.189Z,50.13
2018-08-19T04:58:41.690Z,52.47
2018-08-19T05:01:10.369Z,55.70
2018-08-19T05:03:38.932Z,51.70
2018-08-19T05:06:07.418Z,50.73
2018-08-19T05:08:35.935Z,48.77
2018-08-19T05:11:04.542Z,53.67
2018-08-19T05:13:32.980Z,50.33
2018-08-19T05:16:01.579Z,54.00
2018-08-19T05:18:30.074Z,50.27
2018-08-19T05:21:16.957Z,47.70
2018-08-19T05:23:45.601Z,54.80
2018-08-19T05:26:14.419Z,54.80
2018-08-19T05:28:46.089Z,53.80
2018-08-19T05:31:14.612Z,47.20
2018-08-19T05:33:43.374Z,50.33
2018-08-19T05:36:11.901Z,51.87
2018-08-19T05:38:40.436Z,51.80
2018-08-19T05:41:11.100Z,53.63
2018-08-19T05:43:39.606Z,43.83
2018-08-19T05:46:08.076Z,58.10
2018-08-19T05:48:36.605Z,49.50
2018-08-19T05:51:05.309Z,45.27
2018-08-19T05:53:35.141Z,45.70
2018-08-19T05:56:03.688Z,53.63
2018-08-19T05:58:32.241Z,43.07
2018-08-19T06:01:01.356Z,43.57
2018-08-19T06:03:30.340Z,44.60
2018-08-19T06:05:59.342Z,41.57
2018-08-19T06:08:27.942Z,44.13
2018-08-19T06:10:56.485Z,47.30
2018-08-19T06:13:27.928Z,37.40
2018-08-19T06:15:56.563Z,41.00
2018-08-19T06:18:25.111Z,44.83
2018-08-19T06:20:53.568Z,39.13
2018-08-19T06:23:22.259Z,43.67
2018-08-19T06:25:50.772Z,35.47
2018-08-19T06:28:19.306Z,40.60
2018-08-19T06:30:47.841Z,40.07
2018-08-19T06:33:16.321Z,40.93
2018-08-19T06:35:44.837Z,37.53
2018-08-19T06:38:13.360Z,43.70
2018-08-19T06:40:41.837Z,38.13
2018-08-19T06:43:10.375Z,40.63
2018-08-19T06:45:38.869Z,34.37
2018-08-19T06:48:08.957Z,39.67
2018-08-19T06:50:37.600Z,31.17
2018-08-19T06:53:06.118Z,31.17
2018-08-19T06:55:34.697Z,32.80
2018-08-19T06:58:03.229Z,29.20
2018-08-19T07:00:33.162Z,30.33
2018-08-19T07:03:03.108Z,30.97
2018-08-19T07:05:32.372Z,32.93
2018-08-19T07:08:01.093Z,32.40
2018-08-19T07:10:34.885Z,29.27
2018-08-19T07:13:08.809Z,42.40
2018-08-19T07:15:38.564Z,30.50
2018-08-19T07:18:10.363Z,26.47
2018-08-19T07:20:39.740Z,28.50
2018-08-19T07:23:08.816Z,23.50
2018-08-19T07:25:38.818Z,26.60
2018-08-19T07:28:08.726Z,28.60
2018-08-19T07:30:37.177Z,23.97
2018-08-19T07:33:05.962Z,30.70
2018-08-19T07:35:34.463Z,32.10
2018-08-19T07:38:03.046Z,29.97
2018-08-19T07:40:31.541Z,30.57
2018-08-19T07:43:00.108Z,29.13
2018-08-19T07:45:28.590Z,23.10
2018-08-19T07:47:57.348Z,24.40
2018-08-19T07:50:26.268Z,22.53
2018-08-19T07:52:54.911Z,19.60
2018-08-19T07:55:23.484Z,26.10
2018-08-19T07:57:51.957Z,24.90
2018-08-19T08:00:26.104Z,21.83
2018-08-19T08:02:56.665Z,18.97
2018-08-19T08:05:26.937Z,15.83
2018-08-19T08:07:56.472Z,21.37
2018-08-19T08:10:24.956Z,19.40
2018-08-19T08:13:09.565Z,17.57
2018-08-19T08:15:52.357Z,17.83
2018-08-19T08:18:20.946Z,16.83
2018-08-19T08:20:56.785Z,18.93
2018-08-19T08:23:26.901Z,18.60
2018-08-19T08:25:55.446Z,17.60
2018-08-19T08:28:25.233Z,17.53
2018-08-19T08:30:53.988Z,17.03
2018-08-19T08:33:22.505Z,13.90
2018-08-19T08:35:56.175Z,19.27
2018-08-19T08:38:24.705Z,17.93
2018-08-19T08:40:53.729Z,15.67
2018-08-19T08:43:22.645Z,13.10
2018-08-19T08:45:56.879Z,12.70
2018-08-19T08:48:25.493Z,12.87
2018-08-19T08:50:56.906Z,12.20
2018-08-19T08:53:27.719Z,14.50
2018-08-19T08:55:56.261Z,11.07
2018-08-19T08:58:24.809Z,14.93
2018-08-19T09:00:53.325Z,10.63
2018-08-19T09:03:21.908Z,9.17
2018-08-19T09:05:52.194Z,10.47
2018-08-19T09:08:20.752Z,11.30
2018-08-19T09:10:49.327Z,13.93
2018-08-19T09:13:17.893Z,10.30
2018-08-19T09:15:46.486Z,9.80
2018-08-19T09:18:15.018Z,8.57
2018-08-19T09:20:43.593Z,10.80
2018-08-19T09:23:12.295Z,14.80
2018-08-19T09:25:40.729Z,11.30
2018-08-19T09:28:09.344Z,10.90
2018-08-19T09:30:40.884Z,12.90
2018-08-19T09:33:09.994Z,12.83
2018-08-19T09:35:39.508Z,13.63
2018-08-19T09:38:12.974Z,16.43
2018-08-19T09:40:41.875Z,15.70
2018-08-19T09:43:10.885Z,14.00
2018-08-19T09:45:39.793Z,13.83
2018-08-19T09:48:08.977Z,19.73
2018-08-19T09:50:38.381Z,14.27
2018-08-19T09:53:07.015Z,13.70
2018-08-19T09:55:44.944Z,14.27
2018-08-19T09:58:16.783Z,9.80
2018-08-19T10:00:50.456Z,8.63
2018-08-19T10:03:19.167Z,15.37
2018-08-19T10:05:47.744Z,13.53
2018-08-19T10:08:16.245Z,12.67
2018-08-19T10:10:44.820Z,17.33
2018-08-19T10:13:15.658Z,12.63
2018-08-19T10:15:44.390Z,13.60
2018-08-19T10:18:12.940Z,11.33
2018-08-19T10:20:41.540Z,14.83
2018-08-19T10:23:10.082Z,11.30
2018-08-19T10:25:38.604Z,13.33
2018-08-19T10:28:07.258Z,12.00
2018-08-19T10:30:38.759Z,13.63
2018-08-19T10:33:10.460Z,12.37
2018-08-19T10:35:38.945Z,9.90
2018-08-19T10:38:07.398Z,11.27
2018-08-19T10:40:35.845Z,13.77
2018-08-19T10:43:07.162Z,12.20
2018-08-19T10:45:39.188Z,11.47
2018-08-19T10:48:09.298Z,10.40
2018-08-19T10:50:37.798Z,9.73
2018-08-19T10:53:40.221Z,11.67
2018-08-19T10:56:08.725Z,9.90
2018-08-19T10:58:39.523Z,9.40
2018-08-19T11:01:08.105Z,12.30
2018-08-19T11:03:36.549Z,10.93
2018-08-19T11:06:05.073Z,13.47
2018-08-19T11:08:33.700Z,13.80
2018-08-19T11:11:02.265Z,11.23
2018-08-19T11:13:30.848Z,8.43
2018-08-19T11:15:59.559Z,12.10
2018-08-19T11:18:36.570Z,9.43
2018-08-19T11:21:15.192Z,12.40
2018-08-19T11:23:45.141Z,10.83
2018-08-19T11:26:13.999Z,13.27
2018-08-19T11:28:44.734Z,13.70
2018-08-19T11:31:19.530Z,15.17
2018-08-19T11:33:48.179Z,12.53
2018-08-19T11:36:16.706Z,13.13
2018-08-19T11:38:50.897Z,12.43
2018-08-19T11:41:19.888Z,16.37
2018-08-19T11:43:49.396Z,11.60
2018-08-19T11:46:17.961Z,9.50
2018-08-19T11:48:49.581Z,9.73
2018-08-19T11:51:18.145Z,10.90
2018-08-19T11:53:46.626Z,11.90
2018-08-19T11:56:15.162Z,13.10
2018-08-19T11:58:47.116Z,12.20
2018-08-19T12:01:19.744Z,9.57
2018-08-19T12:03:58.049Z,12.83
2018-08-19T12:06:28.633Z,11.07
2018-08-19T12:08:58.340Z,10.73
2018-08-19T12:11:32.614Z,10.23
2018-08-19T12:14:04.051Z,11.13
2018-08-19T12:16:35.696Z,9.80
2018-08-19T12:19:09.241Z,13.50
2018-08-19T12:21:45.145Z,13.40
2018-08-19T12:24:19.097Z,11.20
2018-08-19T12:26:47.606Z,10.43
2018-08-19T12:29:16.079Z,10.90
2018-08-19T12:31:44.602Z,12.23
2018-08-19T12:34:13.085Z,12.13
2018-08-19T12:36:41.620Z,12.80
2018-08-19T12:39:10.522Z,11.40
2018-08-19T12:41:42.080Z,10.70
2018-08-19T12:44:10.670Z,13.10
2018-08-19T12:46:39.120Z,14.53
2018-08-19T12:49:07.669Z,8.87
2018-08-19T12:51:36.245Z,8.73
2018-08-19T12:54:04.885Z,8.60
2018-08-19T12:56:33.405Z,9.63
2018-08-19T12:59:02.186Z,10.63
2018-08-19T13:01:30.674Z,7.50
2018-08-19T13:03:59.179Z,14.90
2018-08-19T13:06:27.683Z,9.97
2018-08-19T13:08:56.295Z,9.57
2018-08-19T13:11:24.774Z,8.10
2018-08-19T13:13:53.261Z,8.70
2018-08-19T13:16:21.836Z,11.30
2018-08-19T13:18:50.397Z,10.00
2018-08-19T13:21:19.243Z,10.30
2018-08-19T13:23:47.750Z,8.47
2018-08-19T13:26:16.376Z,8.80
2018-08-19T13:28:49.053Z,9.87
2018-08-19T13:31:21.715Z,6.20
2018-08-19T13:33:50.244Z,6.93
2018-08-19T13:36:18.722Z,7.37
2018-08-19T13:38:47.237Z,6.80
2018-08-19T13:41:15.796Z,13.77
2018-08-19T13:43:44.265Z,12.07
2018-08-19T13:46:12.757Z,7.00
2018-08-19T13:48:41.309Z,11.40
2018-08-19T13:51:09.781Z,13.57
2018-08-19T13:53:38.272Z,8.20
2018-08-19T13:56:07.105Z,9.60
2018-08-19T13:58:35.593Z,8.93
2018-08-19T14:01:04.069Z,9.30
2018-08-19T14:03:33.005Z,9.47
2018-08-19T14:06:01.486Z,15.47
2018-08-19T14:08:29.993Z,8.50
2018-08-19T14:10:58.526Z,13.60
2018-08-19T14:13:27.009Z,10.67
2018-08-19T14:15:55.558Z,10.20
2018-08-19T14:18:24.076Z,12.33
2018-08-19T14:20:52.588Z,8.60
2018-08-19T14:23:21.134Z,10.93
2018-08-19T14:25:49.612Z,9.40
2018-08-19T14:28:18.185Z,12.67
2018-08-19T14:30:46.773Z,9.57
2018-08-19T14:33:15.238Z,8.70
2018-08-19T14:35:43.779Z,14.10
2018-08-19T14:38:12.394Z,11.03
2018-08-19T14:40:40.901Z,9.90
2018-08-19T14:43:09.613Z,10.17
2018-08-19T14:45:38.124Z,9.60
2018-08-19T14:48:06.682Z,11.93
2018-08-19T14:50:35.203Z,9.97
2018-08-19T14:53:03.733Z,7.20
2018-08-19T14:55:32.289Z,15.00
2018-08-19T14:58:00.764Z,9.63
2018-08-19T15:00:29.265Z,12.60
2018-08-19T15:02:57.793Z,9.00
2018-08-19T15:05:26.305Z,7.93
2018-08-19T15:07:54.921Z,12.37
2018-08-19T15:10:25.213Z,8.33
2018-08-19T15:12:54.001Z,6.40
2018-08-19T15:15:22.672Z,8.03
2018-08-19T15:17:56.305Z,5.30
2018-08-19T15:20:32.236Z,9.80
2018-08-19T15:23:11.845Z,9.17
2018-08-19T15:25:40.353Z,10.40
2018-08-19T15:28:08.810Z,9.00
2018-08-19T15:30:40.522Z,8.30
2018-08-19T15:33:09.819Z,8.33
2018-08-19T15:35:38.173Z,8.80
2018-08-19T15:38:06.761Z,8.53
2018-08-19T15:40:42.206Z,7.63
2018-08-19T15:43:11.782Z,11.33
2018-08-19T15:45:40.527Z,11.07
2018-08-19T15:48:09.224Z,9.23
2018-08-19T15:50:37.741Z,10.87
2018-08-19T15:53:07.810Z,10.57
2018-08-19T15:55:36.685Z,7.50
2018-08-19T15:58:05.473Z,10.03
2018-08-19T16:00:35.429Z,8.93
2018-08-19T16:03:03.977Z,9.20
2018-08-19T16:05:32.460Z,8.90
2018-08-19T16:08:01.019Z,8.70
2018-08-19T16:10:29.569Z,11.00
2018-08-19T16:12:58.060Z,11.40
2018-08-19T16:15:28.505Z,9.23
2018-08-19T16:17:57.976Z,9.43
2018-08-19T16:20:26.504Z,8.50
2018-08-19T16:22:55.019Z,11.17
2018-08-19T16:25:23.573Z,11.93
2018-08-19T16:27:52.345Z,9.43
2018-08-19T16:30:21.148Z,9.03
2018-08-19T16:32:56.259Z,10.80
2018-08-19T16:35:24.885Z,8.30
2018-08-19T16:37:53.447Z,11.93
2018-08-19T16:40:22.096Z,11.13
2018-08-19T16:42:50.597Z,7.67
2018-08-19T16:45:19.154Z,9.30
2018-08-19T16:47:47.745Z,8.27
2018-08-19T16:50:16.319Z,8.27
2018-08-19T16:52:44.774Z,11.73
2018-08-19T16:55:13.309Z,11.33
2018-08-19T16:57:41.910Z,9.73
2018-08-19T17:00:10.614Z,6.97
2018-08-19T17:02:39.229Z,11.83
2018-08-19T17:05:40.758Z,10.30
2018-08-19T17:08:09.357Z,10.80
2018-08-19T17:10:37.857Z,7.97
2018-08-19T17:13:06.332Z,11.33
2018-08-19T17:15:34.824Z,10.33
2018-08-19T17:18:03.379Z,7.20
2018-08-19T17:20:31.939Z,9.27
2018-08-19T17:23:00.398Z,6.93
2018-08-19T17:25:28.907Z,10.03
2018-08-19T17:27:59.953Z,13.03
2018-08-19T17:30:28.508Z,14.03
2018-08-19T17:33:00.555Z,9.30
2018-08-19T17:35:29.032Z,11.53
2018-08-19T17:37:57.654Z,8.43
2018-08-19T17:40:26.113Z,9.63
2018-08-19T17:42:54.766Z,11.43
2018-08-19T17:45:23.559Z,13.40
2018-08-19T17:47:52.089Z,13.30
2018-08-19T17:50:30.437Z,14.10
2018-08-19T17:53:01.680Z,10.17
2018-08-19T17:55:30.261Z,14.03
2018-08-19T17:57:59.982Z,13.07
2018-08-19T18:00:28.830Z,16.57
2018-08-19T18:02:57.321Z,11.20
2018-08-19T18:05:26.055Z,11.80
2018-08-19T18:07:55.632Z,11.30
2018-08-19T18:10:24.190Z,17.73
2018-08-19T18:12:52.983Z,10.57
2018-08-19T18:15:21.570Z,9.77
2018-08-19T18:17:57.031Z,9.10
2018-08-19T18:20:27.377Z,13.07
2018-08-19T18:22:56.892Z,9.60
2018-08-19T18:25:25.710Z,10.47
2018-08-19T18:27:54.243Z,10.00
2018-08-19T18:30:24.760Z,12.33
2018-08-19T18:32:53.442Z,12.47
2018-08-19T18:35:22.838Z,12.30
2018-08-19T18:37:51.328Z,9.37
2018-08-19T18:40:31.242Z,12.07
2018-08-19T18:42:59.865Z,9.30
2018-08-19T18:45:29.034Z,9.00
2018-08-19T18:48:03.079Z,13.20
2018-08-19T18:50:31.609Z,9.60
2018-08-19T18:53:00.177Z,11.20
2018-08-19T18:55:28.725Z,10.87
2018-08-19T18:57:57.651Z,15.03
2018-08-19T19:00:27.380Z,16.43
2018-08-19T19:02:58.036Z,11.77
2018-08-19T19:05:37.195Z,14.67
2018-08-19T19:08:11.445Z,14.37
2018-08-19T19:10:40.638Z,11.97
2018-08-19T19:13:09.152Z,11.97
2018-08-19T19:15:40.164Z,14.70
2018-08-19T19:18:11.190Z,12.83
2018-08-19T19:20:47.790Z,12.33
2018-08-19T19:23:17.312Z,13.37
2018-08-19T19:25:45.980Z,11.10
2018-08-19T19:28:14.587Z,16.33
2018-08-19T19:30:43.109Z,11.60
2018-08-19T19:33:11.773Z,12.60
2018-08-19T19:35:40.334Z,10.57
2018-08-19T19:38:09.527Z,11.27
2018-08-19T19:40:38.404Z,10.77
2018-08-19T19:43:06.924Z,12.10
2018-08-19T19:45:41.733Z,12.80
2018-08-19T19:48:10.757Z,12.33
2018-08-19T19:50:39.253Z,17.73
2018-08-19T19:53:07.732Z,15.27
2018-08-19T19:55:36.225Z,13.10
2018-08-19T19:58:04.788Z,14.63
2018-08-19T20:00:48.970Z,12.33
2018-08-19T20:03:17.413Z,12.33
2018-08-19T20:05:45.873Z,14.83
2018-08-19T20:08:14.377Z,14.07
2018-08-19T20:10:42.862Z,14.43
2018-08-19T20:13:11.301Z,13.33
2018-08-19T20:15:39.939Z,15.53
2018-08-19T20:18:08.426Z,14.50
2018-08-19T20:20:36.971Z,18.43
2018-08-19T20:23:10.609Z,15.63
2018-08-19T20:25:39.597Z,21.20
2018-08-19T20:28:09.621Z,17.93
2018-08-19T20:30:39.370Z,16.73
2018-08-19T20:33:17.019Z,21.53
2018-08-19T20:35:45.680Z,24.67
2018-08-19T20:38:14.149Z,27.57
2018-08-19T20:40:42.683Z,25.67
2018-08-19T20:43:16.440Z,24.00
2018-08-19T20:45:44.933Z,28.87
2018-08-19T20:48:14.628Z,31.50
2018-08-19T20:50:43.164Z,26.20
2018-08-19T20:53:11.670Z,28.83
2018-08-19T20:55:40.176Z,24.30
2018-08-19T20:58:08.732Z,24.03
2018-08-19T21:00:37.888Z,23.27
2018-08-19T21:03:07.125Z,23.23
2018-08-19T21:05:35.721Z,25.20
2018-08-19T21:08:05.964Z,23.23
2018-08-19T21:10:34.465Z,29.40
2018-08-19T21:13:03.017Z,23.80
2018-08-19T21:15:36.552Z,25.83
2018-08-19T21:18:06.141Z,24.63
2018-08-19T21:20:35.214Z,23.50
2018-08-19T21:23:04.593Z,26.13
2018-08-19T21:25:33.382Z,21.70
2018-08-19T21:28:01.874Z,30.70
2018-08-19T21:30:30.381Z,25.10
2018-08-19T21:32:58.884Z,26.43
2018-08-19T21:35:31.129Z,25.47
2018-08-19T21:37:59.633Z,30.53
2018-08-19T21:40:34.286Z,25.77
2018-08-19T21:43:02.845Z,27.30
2018-08-19T21:45:31.493Z,29.43
2018-08-19T21:47:59.992Z,27.07
2018-08-19T21:50:28.481Z,25.70
2018-08-19T21:53:00.756Z,28.77
2018-08-19T21:55:32.040Z,27.17
2018-08-19T21:58:01.369Z,30.90
2018-08-19T22:00:31.596Z,29.87
2018-08-19T22:03:06.312Z,30.73
2018-08-19T22:05:35.546Z,24.97
2018-08-19T22:08:05.061Z,25.80
2018-08-19T22:10:34.331Z,33.37
2018-08-19T22:13:04.769Z,29.73
2018-08-19T22:15:39.307Z,24.57
2018-08-19T22:18:09.723Z,28.50
2018-08-19T22:20:38.604Z,23.90
2018-08-19T22:23:07.476Z,24.27
2018-08-19T22:25:36.049Z,20.23
2018-08-19T22:28:04.572Z,23.13
2018-08-19T22:30:33.077Z,24.03
2018-08-19T22:33:01.603Z,28.03
2018-08-19T22:35:31.697Z,22.20
2018-08-19T22:38:03.829Z,33.40
2018-08-19T22:40:37.836Z,26.97
2018-08-19T22:43:07.480Z,22.20
2018-08-19T22:45:36.221Z,20.13
2018-08-19T22:48:04.810Z,25.90
2018-08-19T22:50:33.326Z,23.53
2018-08-19T22:53:01.798Z,20.53
2018-08-19T22:55:30.306Z,22.40
2018-08-19T22:58:04.109Z,27.17
2018-08-19T23:00:32.608Z,21.90
2018-08-19T23:03:01.133Z,18.50
2018-08-19T23:05:29.632Z,21.30
2018-08-19T23:07:58.073Z,19.40
2018-08-19T23:10:26.594Z,26.50
2018-08-19T23:12:55.117Z,16.23
2018-08-19T23:15:44.023Z,15.97
2018-08-19T23:18:12.539Z,16.03
2018-08-19T23:20:41.041Z,18.73
2018-08-19T23:23:09.520Z,13.47
2018-08-19T23:25:38.028Z,21.10
2018-08-19T23:28:06.674Z,21.40
2018-08-19T23:30:35.121Z,14.23
2018-08-19T23:33:03.661Z,10.97
2018-08-19T23:35:32.141Z,14.50
2018-08-19T23:38:00.649Z,15.80
2018-08-19T23:40:29.191Z,15.20
2018-08-19T23:42:57.680Z,16.33
2018-08-19T23:45:26.173Z,17.40
2018-08-19T23:47:54.676Z,17.27
2018-08-19T23:50:23.166Z,12.77
2018-08-19T23:52:51.662Z,14.97
2018-08-19T23:55:20.181Z,16.43
2018-08-19T23:57:48.609Z,15.33
